Portada
METAR-TAF:

METAR-TAF

Aeroports :

Bombai, Índia

latitud: 19-05-53N, longitud: 072-50-02E, altitud: 4 m

Observació

L'informe es va fer fa 2 hores i 30 minuts, a les 13:00 UTC
Vent 11 kt del Nord-Oest
Temperatura 31°C
Humitat 75%
Pressió 1007 hPa
Visibilitat: 6000 m
Escasses núvols a una alçada de 2000 ft

METAR: VAJJ 251300Z 31011KT 6000 FEW020 31/26 Q1007 NOSIG

Hora: 21:00 (15:30 UTC)


TAF: manca

Observacions i pronòstics meteorològics de més de 4000 aeroports (METAR i TAF).

Les estacions disponibles són els punts grocs i vermells al mapa.

Posi el ratolí al punt desitjat per veure el nom de l'estació.

Feu clic per veure les observacions i els pronòstics meteorològics.

Per canviar el mapa: feu clic els botons verds amb una creu de color negre per apropar; al botó verd amb un guió per allunyar la imatge; o en les fletxes verdes per a mapes adjacents.


METAR-TAF: